Time;durP1;ratioP1;P1;durP2;ratioP2;P2;SDS_P1;SDS_P2;PMS_P1;PMS_P2;Temp;Humidity;BMP_temperature;BMP_pressure;BME280_temperature;BME280_humidity;BME280_pressure;Samples;Min_cycle;Max_cycle;Signal;HPM_P1;HPM_P2
2020/12/13 00:00:06;;;;;;;;;;;22.50;43.60;;;;;;1515552;76;1205;-58
2020/12/13 00:02:08;;;;;;;;;;;22.40;43.60;;;;;;1519857;76;690;-57
2020/12/13 00:04:10;;;;;;;;;;;22.40;43.50;;;;;;1516109;76;658;-58
2020/12/13 00:06:12;;;;;;;;;;;22.40;43.50;;;;;;1514943;76;678;-58
2020/12/13 00:08:14;;;;;;;;;;;22.40;43.60;;;;;;1518296;76;659;-57
2020/12/13 00:10:16;;;;;;;;;;;22.40;43.50;;;;;;1523213;76;1148;-57
2020/12/13 00:12:18;;;;;;;;;;;22.40;43.40;;;;;;1515603;76;773;-58
2020/12/13 00:14:20;;;;;;;;;;;22.90;43.60;;;;;;1522456;76;688;-58
2020/12/13 00:16:22;;;;;;;;;;;22.50;43.50;;;;;;1522898;76;641;-57
2020/12/13 00:18:24;;;;;;;;;;;22.50;43.40;;;;;;1512402;76;1929;-57
2020/12/13 00:20:26;;;;;;;;;;;22.50;43.40;;;;;;1521407;76;1156;-58
2020/12/13 00:22:28;;;;;;;;;;;22.50;43.40;;;;;;1515810;76;730;-58
2020/12/13 00:24:29;;;;;;;;;;;22.50;43.10;;;;;;1515433;76;693;-56
2020/12/13 00:26:31;;;;;;;;;;;22.50;43.50;;;;;;1523904;76;723;-58
2020/12/13 00:28:33;;;;;;;;;;;22.50;43.40;;;;;;1516698;76;723;-58
2020/12/13 00:30:35;;;;;;;;;;;22.50;43.60;;;;;;1511537;76;1137;-57
2020/12/13 00:32:37;;;;;;;;;;;22.40;43.40;;;;;;1526169;76;781;-58
2020/12/13 00:34:39;;;;;;;;;;;22.40;43.30;;;;;;1525341;76;773;-58
2020/12/13 00:36:42;;;;;;;;;;;22.50;43.50;;;;;;1519212;76;675;-57
2020/12/13 00:38:43;;;;;;;;;;;22.50;43.60;;;;;;1514252;76;1910;-58
2020/12/13 00:40:48;;;;;;;;;;;22.50;43.90;;;;;;1513107;76;1098;-58
2020/12/13 00:42:49;;;;;;;;;;;22.40;43.70;;;;;;1518776;76;1701;-55
2020/12/13 00:44:51;;;;;;;;;;;22.40;43.70;;;;;;1512672;76;737;-57
2020/12/13 00:46:53;;;;;;;;;;;22.40;43.70;;;;;;1514121;76;780;-57
2020/12/13 00:48:55;;;;;;;;;;;22.50;43.90;;;;;;1523446;76;774;-57
2020/12/13 00:50:57;;;;;;;;;;;22.40;43.80;;;;;;1515782;76;1102;-57
2020/12/13 00:52:59;;;;;;;;;;;22.40;43.60;;;;;;1513814;76;689;-56
2020/12/13 00:55:01;;;;;;;;;;;22.50;43.60;;;;;;1518806;76;723;-56
2020/12/13 00:57:03;;;;;;;;;;;22.50;43.60;;;;;;1513729;76;806;-58
2020/12/13 00:59:05;;;;;;;;;;;22.40;43.40;;;;;;1523191;76;1926;-58
2020/12/13 01:01:06;;;;;;;;;;;22.40;43.40;;;;;;1514846;76;1196;-58
2020/12/13 01:03:08;;;;;;;;;;;22.50;43.50;;;;;;1509740;76;702;-57
2020/12/13 01:05:10;;;;;;;;;;;22.50;43.60;;;;;;1513633;76;761;-58
2020/12/13 01:07:12;;;;;;;;;;;22.50;43.70;;;;;;1515974;76;684;-58
2020/12/13 01:09:14;;;;;;;;;;;22.40;43.70;;;;;;1527460;76;720;-57
2020/12/13 01:11:17;;;;;;;;;;;22.40;43.90;;;;;;1526161;76;1198;-58
2020/12/13 01:13:19;;;;;;;;;;;22.40;43.80;;;;;;1516672;76;1669;-58
2020/12/13 01:15:21;;;;;;;;;;;22.40;43.60;;;;;;1515076;76;700;-58
2020/12/13 01:17:23;;;;;;;;;;;22.40;43.80;;;;;;1520163;76;1938;-56
2020/12/13 01:19:25;;;;;;;;;;;22.40;43.80;;;;;;1517974;76;704;-57
2020/12/13 01:21:27;;;;;;;;;;;22.40;44.10;;;;;;1517005;76;1155;-57
2020/12/13 01:23:29;;;;;;;;;;;22.30;43.80;;;;;;1518872;76;746;-56
2020/12/13 01:25:31;;;;;;;;;;;22.40;43.70;;;;;;1513707;76;712;-57
2020/12/13 01:27:33;;;;;;;;;;;22.40;43.70;;;;;;1516848;76;795;-57
2020/12/13 01:29:35;;;;;;;;;;;22.40;43.60;;;;;;1520818;76;714;-56
2020/12/13 01:31:39;;;;;;;;;;;22.50;43.90;;;;;;1513292;76;1156;-58
2020/12/13 01:33:41;;;;;;;;;;;22.40;43.60;;;;;;1515939;76;777;-56
2020/12/13 01:35:42;;;;;;;;;;;22.40;43.60;;;;;;1514070;76;732;-57
2020/12/13 01:37:45;;;;;;;;;;;22.50;43.90;;;;;;1524580;76;1944;-58
2020/12/13 01:39:47;;;;;;;;;;;22.50;43.70;;;;;;1513531;76;1134;-57
2020/12/13 01:41:49;;;;;;;;;;;22.50;43.70;;;;;;1521717;76;800;-58
2020/12/13 01:43:57;;;;;;;;;;;22.40;43.80;;;;;;1516912;76;691;-59
2020/12/13 01:45:59;;;;;;;;;;;22.40;43.80;;;;;;1511611;76;659;-58
2020/12/13 01:48:01;;;;;;;;;;;22.40;43.50;;;;;;1516890;76;683;-57
2020/12/13 01:50:03;;;;;;;;;;;22.50;43.70;;;;;;1513698;76;1159;-58
2020/12/13 01:54:28;;;;;;;;;;;22.50;43.60;;;;;;1520353;76;889;-57
2020/12/13 01:56:30;;;;;;;;;;;22.50;43.70;;;;;;1516817;76;683;-59
2020/12/13 01:58:38;;;;;;;;;;;22.40;43.50;;;;;;1515654;76;1931;-57
2020/12/13 02:00:40;;;;;;;;;;;22.50;43.50;;;;;;1519340;76;1163;-57
2020/12/13 02:02:50;;;;;;;;;;;22.50;43.60;;;;;;1514453;76;732;-58
2020/12/13 02:04:54;;;;;;;;;;;22.50;43.60;;;;;;1510250;76;1622;-57
2020/12/13 02:06:56;;;;;;;;;;;22.50;43.50;;;;;;1513625;76;725;-57
2020/12/13 02:08:57;;;;;;;;;;;22.50;43.40;;;;;;1522620;76;697;-59
2020/12/13 02:10:59;;;;;;;;;;;22.50;43.30;;;;;;1519291;76;1199;-59
2020/12/13 02:13:01;;;;;;;;;;;22.50;43.30;;;;;;1525212;76;798;-59
2020/12/13 02:15:03;;;;;;;;;;;22.50;43.30;;;;;;1518149;76;709;-57
2020/12/13 02:17:05;;;;;;;;;;;22.50;43.40;;;;;;1517081;76;776;-57
2020/12/13 02:19:07;;;;;;;;;;;22.50;43.40;;;;;;1519452;76;1933;-58
2020/12/13 02:21:12;;;;;;;;;;;22.50;43.40;;;;;;1513609;76;1102;-57
2020/12/13 02:23:14;;;;;;;;;;;22.40;43.40;;;;;;1511261;76;1118;-57
2020/12/13 02:25:17;;;;;;;;;;;22.40;43.40;;;;;;1524931;76;703;-57
2020/12/13 02:27:19;;;;;;;;;;;22.50;43.40;;;;;;1511878;76;667;-58
2020/12/13 02:29:20;;;;;;;;;;;22.50;43.30;;;;;;1521442;76;649;-59
2020/12/13 02:31:22;;;;;;;;;;;22.50;43.30;;;;;;1535032;76;1050;-58
2020/12/13 02:33:24;;;;;;;;;;;22.50;43.40;;;;;;1536198;76;705;-57
2020/12/13 02:35:26;;;;;;;;;;;22.40;43.40;;;;;;1522832;76;681;-58
2020/12/13 02:37:28;;;;;;;;;;;22.40;43.20;;;;;;1527415;76;696;-57
2020/12/13 02:39:30;;;;;;;;;;;22.50;43.40;;;;;;1521961;76;1941;-59
2020/12/13 02:41:32;;;;;;;;;;;22.50;43.40;;;;;;1534174;76;1030;-59
2020/12/13 02:43:33;;;;;;;;;;;22.50;43.40;;;;;;1529305;76;730;-59
2020/12/13 02:45:35;;;;;;;;;;;22.50;43.50;;;;;;1516450;76;717;-58
2020/12/13 02:47:37;;;;;;;;;;;22.50;43.50;;;;;;1512913;76;706;-59
2020/12/13 02:49:40;;;;;;;;;;;22.50;43.40;;;;;;1530496;76;1142;-59
2020/12/13 02:51:42;;;;;;;;;;;22.40;43.30;;;;;;1540387;76;680;-58
2020/12/13 02:53:44;;;;;;;;;;;22.50;43.40;;;;;;1524027;76;797;-59
2020/12/13 02:55:46;;;;;;;;;;;22.40;43.30;;;;;;1533872;76;747;-58
2020/12/13 02:57:48;;;;;;;;;;;22.50;43.40;;;;;;1533596;76;661;-58
2020/12/13 02:59:50;;;;;;;;;;;22.50;43.30;;;;;;1533477;76;1947;-58
2020/12/13 03:01:51;;;;;;;;;;;22.50;43.30;;;;;;1526060;76;690;-59
2020/12/13 03:03:53;;;;;;;;;;;22.50;43.40;;;;;;1533363;76;734;-57
2020/12/13 03:05:55;;;;;;;;;;;22.50;43.40;;;;;;1535808;76;725;-59
2020/12/13 03:07:58;;;;;;;;;;;22.40;43.30;;;;;;1541882;76;698;-59
2020/12/13 03:10:00;;;;;;;;;;;22.40;43.40;;;;;;1548159;76;1083;-58
2020/12/13 03:12:02;;;;;;;;;;;22.40;43.40;;;;;;1547262;76;724;-58
2020/12/13 03:14:03;;;;;;;;;;;22.50;43.50;;;;;;1541265;76;700;-59
2020/12/13 03:16:06;;;;;;;;;;;22.40;43.40;;;;;;1543113;76;667;-58
2020/12/13 03:18:08;;;;;;;;;;;22.40;43.30;;;;;;1541943;76;1899;-56
2020/12/13 03:20:09;;;;;;;;;;;22.40;43.20;;;;;;1547660;76;1186;-58
2020/12/13 03:22:11;;;;;;;;;;;22.50;43.40;;;;;;1533157;76;762;-58
2020/12/13 03:24:13;;;;;;;;;;;22.40;43.20;;;;;;1540612;76;761;-58
2020/12/13 03:26:15;;;;;;;;;;;22.50;43.40;;;;;;1533925;76;744;-58
2020/12/13 03:28:17;;;;;;;;;;;22.40;43.50;;;;;;1533730;76;661;-58
2020/12/13 03:30:19;;;;;;;;;;;22.50;43.70;;;;;;1528103;76;1142;-58
2020/12/13 03:32:22;;;;;;;;;;;22.40;43.50;;;;;;1530231;76;725;-58
2020/12/13 03:34:24;;;;;;;;;;;22.40;43.40;;;;;;1545229;76;794;-56
2020/12/13 03:36:26;;;;;;;;;;;22.40;43.60;;;;;;1529968;76;769;-57
2020/12/13 03:38:28;;;;;;;;;;;22.40;43.50;;;;;;1544391;76;1932;-57
2020/12/13 03:40:29;;;;;;;;;;;22.40;43.60;;;;;;1529316;76;1197;-58
2020/12/13 03:42:31;;;;;;;;;;;22.40;43.60;;;;;;1514951;77;742;-56
2020/12/13 03:44:33;;;;;;;;;;;22.40;43.50;;;;;;1528772;77;732;-57
2020/12/13 03:46:35;;;;;;;;;;;22.40;43.60;;;;;;1528052;76;706;-58
2020/12/13 03:48:37;;;;;;;;;;;22.40;43.60;;;;;;1531795;76;732;-58
2020/12/13 03:50:39;;;;;;;;;;;22.40;43.80;;;;;;1552005;75;1129;-58
2020/12/13 03:52:41;;;;;;;;;;;22.30;43.80;;;;;;1536935;76;710;-58
2020/12/13 03:54:42;;;;;;;;;;;22.40;43.90;;;;;;1554286;75;706;-58
2020/12/13 03:56:44;;;;;;;;;;;22.30;44.20;;;;;;1525282;76;797;-58
2020/12/13 03:58:46;;;;;;;;;;;22.30;44.20;;;;;;1527366;76;1939;-57
2020/12/13 04:00:48;;;;;;;;;;;22.30;44.30;;;;;;1515871;76;1196;-58
2020/12/13 04:02:50;;;;;;;;;;;22.30;44.40;;;;;;1543701;75;697;-57
2020/12/13 04:04:52;;;;;;;;;;;22.20;44.30;;;;;;1517016;76;613;-56
2020/12/13 04:06:54;;;;;;;;;;;22.30;44.60;;;;;;1518869;76;749;-56
2020/12/13 04:08:56;;;;;;;;;;;22.20;44.50;;;;;;1527503;76;745;-57
2020/12/13 04:10:57;;;;;;;;;;;22.20;44.70;;;;;;1519400;76;1114;-58
2020/12/13 04:12:59;;;;;;;;;;;22.20;44.80;;;;;;1517608;76;743;-57
2020/12/13 04:15:01;;;;;;;;;;;22.20;44.70;;;;;;1530891;76;713;-57
2020/12/13 04:17:03;;;;;;;;;;;22.20;44.70;;;;;;1521924;76;715;-58
2020/12/13 04:19:05;;;;;;;;;;;22.30;44.90;;;;;;1517647;76;1945;-56
2020/12/13 04:21:07;;;;;;;;;;;22.20;44.80;;;;;;1513858;76;1082;-58
2020/12/13 04:23:09;;;;;;;;;;;22.20;44.80;;;;;;1518849;76;688;-56
2020/12/13 04:25:10;;;;;;;;;;;22.30;45.00;;;;;;1516778;76;647;-57
2020/12/13 04:27:12;;;;;;;;;;;22.20;45.00;;;;;;1516725;76;722;-56
2020/12/13 04:29:14;;;;;;;;;;;22.30;45.10;;;;;;1522953;76;1348;-58
2020/12/13 04:31:16;;;;;;;;;;;22.30;45.10;;;;;;1526546;76;1123;-58
2020/12/13 04:33:18;;;;;;;;;;;22.20;44.90;;;;;;1541717;76;688;-59
2020/12/13 04:35:20;;;;;;;;;;;22.20;45.00;;;;;;1526115;76;683;-58
2020/12/13 04:37:26;;;;;;;;;;;22.20;45.10;;;;;;1534897;76;694;-58
2020/12/13 04:39:25;;;;;;;;;;;22.10;45.10;;;;;;1527916;76;1913;-58
2020/12/13 04:41:27;;;;;;;;;;;22.20;45.10;;;;;;1535624;76;1142;-59
2020/12/13 04:43:29;;;;;;;;;;;22.20;45.10;;;;;;1531167;76;707;-58
2020/12/13 04:45:31;;;;;;;;;;;22.20;45.20;;;;;;1530175;76;682;-58
2020/12/13 04:47:33;;;;;;;;;;;22.20;45.30;;;;;;1521493;76;807;-57
2020/12/13 04:49:35;;;;;;;;;;;22.20;45.20;;;;;;1525013;76;789;-58
2020/12/13 04:51:37;;;;;;;;;;;22.20;45.20;;;;;;1537492;76;1149;-58
2020/12/13 04:53:39;;;;;;;;;;;22.20;45.20;;;;;;1541212;76;795;-58
2020/12/13 04:55:45;;;;;;;;;;;22.20;45.20;;;;;;1534201;76;786;-59
2020/12/13 04:57:47;;;;;;;;;;;22.20;45.20;;;;;;1528274;76;1787;-58
2020/12/13 04:59:50;;;;;;;;;;;22.20;45.10;;;;;;1533733;76;1924;-57
2020/12/13 05:01:54;;;;;;;;;;;22.30;45.10;;;;;;1527175;76;662;-57
2020/12/13 05:03:56;;;;;;;;;;;22.30;45.10;;;;;;1524756;76;1104;-57
2020/12/13 05:05:58;;;;;;;;;;;22.30;45.00;;;;;;1557791;76;764;-57
2020/12/13 05:08:00;;;;;;;;;;;22.30;44.90;;;;;;1526482;76;714;-58
2020/12/13 05:10:02;;;;;;;;;;;22.30;45.00;;;;;;1528114;76;1140;-56
2020/12/13 05:12:03;;;;;;;;;;;22.30;45.00;;;;;;1538355;76;672;-58
2020/12/13 05:14:05;;;;;;;;;;;22.30;45.00;;;;;;1543428;76;715;-57
2020/12/13 05:16:08;;;;;;;;;;;22.30;45.00;;;;;;1534473;76;651;-57
2020/12/13 05:18:09;;;;;;;;;;;22.30;45.00;;;;;;1548730;76;775;-57
2020/12/13 05:20:11;;;;;;;;;;;22.30;44.90;;;;;;1545073;76;1948;-57
2020/12/13 05:22:13;;;;;;;;;;;22.30;44.90;;;;;;1535560;76;795;-57
2020/12/13 05:24:15;;;;;;;;;;;22.30;44.90;;;;;;1524398;76;796;-57
2020/12/13 05:26:17;;;;;;;;;;;22.30;44.90;;;;;;1541063;76;725;-58
2020/12/13 05:28:19;;;;;;;;;;;22.30;44.90;;;;;;1532952;76;1072;-58
2020/12/13 05:30:30;;;;;;;;;;;22.30;44.90;;;;;;1530155;76;1140;-56
2020/12/13 05:32:31;;;;;;;;;;;22.30;44.80;;;;;;1524506;76;1610;-58
2020/12/13 05:34:33;;;;;;;;;;;22.30;44.80;;;;;;1540101;76;723;-56
2020/12/13 05:36:39;;;;;;;;;;;22.30;44.90;;;;;;1542384;76;740;-59
2020/12/13 05:38:39;;;;;;;;;;;22.30;44.80;;;;;;1544032;76;1563;-57
2020/12/13 05:40:41;;;;;;;;;;;22.30;44.80;;;;;;1511453;76;1943;-57
2020/12/13 05:42:46;;;;;;;;;;;22.30;44.80;;;;;;1525209;76;668;-59
2020/12/13 05:47:16;;;;;;;;;;;22.30;44.70;;;;;;1531280;76;877;-58
2020/12/13 05:53:45;;;;;;;;;;;22.30;44.80;;;;;;1526577;76;880;-57
2020/12/13 05:55:47;;;;;;;;;;;22.40;44.60;;;;;;1527727;76;793;-57
2020/12/13 05:57:49;;;;;;;;;;;22.40;44.50;;;;;;1531889;76;802;-57
2020/12/13 05:59:51;;;;;;;;;;;22.50;44.60;;;;;;1524720;76;1925;-58
2020/12/13 06:01:53;;;;;;;;;;;22.50;44.60;;;;;;1529202;76;1082;-58
2020/12/13 06:03:55;;;;;;;;;;;22.50;44.50;;;;;;1543012;76;780;-59
2020/12/13 06:05:59;;;;;;;;;;;22.40;44.40;;;;;;1532120;76;772;-59
2020/12/13 06:08:02;;;;;;;;;;;22.50;44.60;;;;;;1541304;76;1682;-59
2020/12/13 06:10:05;;;;;;;;;;;22.50;44.50;;;;;;1523680;76;1128;-57
2020/12/13 06:12:08;;;;;;;;;;;22.50;44.40;;;;;;1517030;76;1442;-57
2020/12/13 06:14:16;;;;;;;;;;;22.50;44.40;;;;;;1512031;76;703;-58
2020/12/13 06:16:18;;;;;;;;;;;22.50;44.40;;;;;;1528021;76;829;-59
2020/12/13 06:18:20;;;;;;;;;;;22.50;44.30;;;;;;1545057;76;844;-58
2020/12/13 06:20:22;;;;;;;;;;;22.50;44.40;;;;;;1532872;76;1940;-58
2020/12/13 06:22:24;;;;;;;;;;;22.50;44.40;;;;;;1530858;76;700;-59
2020/12/13 06:24:26;;;;;;;;;;;22.50;44.40;;;;;;1531909;76;718;-59
2020/12/13 06:26:28;;;;;;;;;;;22.50;44.40;;;;;;1527460;76;722;-58
2020/12/13 06:28:30;;;;;;;;;;;22.50;44.40;;;;;;1528798;76;1024;-56
2020/12/13 06:30:32;;;;;;;;;;;22.50;44.60;;;;;;1518531;76;1121;-57
2020/12/13 06:32:40;;;;;;;;;;;22.40;44.40;;;;;;1538181;76;705;-58
2020/12/13 06:34:44;;;;;;;;;;;22.50;44.50;;;;;;1542054;76;693;-58
2020/12/13 06:36:45;;;;;;;;;;;22.50;44.50;;;;;;1526618;76;1029;-58
2020/12/13 06:38:47;;;;;;;;;;;22.40;44.30;;;;;;1517309;76;667;-58
2020/12/13 06:40:49;;;;;;;;;;;22.40;44.30;;;;;;1523247;76;1933;-59
2020/12/13 06:42:52;;;;;;;;;;;22.50;44.50;;;;;;1509199;77;632;-57
2020/12/13 06:45:07;;;;;;;;;;;22.50;44.40;;;;;;1529497;76;702;-57
2020/12/13 06:47:24;;;;;;;;;;;22.50;44.50;;;;;;1532318;76;771;-58
2020/12/13 06:49:26;;;;;;;;;;;22.50;44.40;;;;;;1526640;76;764;-59
2020/12/13 06:51:28;;;;;;;;;;;22.50;44.40;;;;;;1546678;76;1088;-58
2020/12/13 06:53:30;;;;;;;;;;;22.50;44.40;;;;;;1531880;76;790;-58
2020/12/13 06:55:32;;;;;;;;;;;22.50;44.40;;;;;;1496303;77;788;-57
2020/12/13 06:57:34;;;;;;;;;;;22.50;44.40;;;;;;1531811;75;778;-59
2020/12/13 06:59:36;;;;;;;;;;;22.50;44.40;;;;;;1511270;76;1949;-56
2020/12/13 07:01:42;;;;;;;;;;;22.60;44.30;;;;;;1499530;77;1189;-57
2020/12/13 07:03:44;;;;;;;;;;;22.60;44.30;;;;;;1554031;74;692;-59
2020/12/13 07:05:48;;;;;;;;;;;22.60;44.20;;;;;;1553441;74;715;-58
2020/12/13 07:07:53;;;;;;;;;;;22.50;44.30;;;;;;1554371;74;675;-56
2020/12/13 07:09:57;;;;;;;;;;;22.60;44.20;;;;;;1558367;74;1173;-59
2020/12/13 07:11:59;;;;;;;;;;;22.50;44.30;;;;;;1559391;74;732;-58
2020/12/13 07:14:05;;;;;;;;;;;22.50;44.30;;;;;;1556941;74;714;-59
2020/12/13 07:16:24;;;;;;;;;;;22.50;44.30;;;;;;1561335;74;694;-59
2020/12/13 07:18:14;;;;;;;;;;;22.50;44.40;;;;;;1558066;74;1646;-59
2020/12/13 07:20:16;;;;;;;;;;;22.50;44.40;;;;;;1553545;74;1921;-59
2020/12/13 07:22:18;;;;;;;;;;;22.50;44.30;;;;;;1564417;74;766;-60
2020/12/13 07:24:20;;;;;;;;;;;22.50;44.30;;;;;;1561493;74;717;-59
2020/12/13 07:26:22;;;;;;;;;;;22.50;44.40;;;;;;1558455;74;777;-59
2020/12/13 07:28:23;;;;;;;;;;;22.50;44.40;;;;;;1568120;74;712;-57
2020/12/13 07:30:25;;;;;;;;;;;22.50;44.30;;;;;;1571465;74;1159;-58
2020/12/13 07:32:27;;;;;;;;;;;22.60;44.50;;;;;;1563835;74;793;-58
2020/12/13 07:34:29;;;;;;;;;;;22.60;44.40;;;;;;1561953;74;806;-59
2020/12/13 07:36:31;;;;;;;;;;;22.60;44.40;;;;;;1560626;74;661;-58
2020/12/13 07:38:34;;;;;;;;;;;22.50;44.40;;;;;;1551382;74;737;-58
2020/12/13 07:40:35;;;;;;;;;;;22.60;44.40;;;;;;1553692;74;1928;-57
2020/12/13 07:42:37;;;;;;;;;;;22.60;44.40;;;;;;1572242;74;709;-59
2020/12/13 07:44:39;;;;;;;;;;;22.60;44.40;;;;;;1568047;74;689;-59
2020/12/13 07:46:41;;;;;;;;;;;22.60;44.40;;;;;;1561593;74;602;-59
2020/12/13 07:48:43;;;;;;;;;;;22.60;44.40;;;;;;1559523;74;716;-59
2020/12/13 07:50:46;;;;;;;;;;;22.60;44.40;;;;;;1561885;74;1170;-58
2020/12/13 07:52:48;;;;;;;;;;;22.60;44.40;;;;;;1558458;74;777;-58
2020/12/13 07:54:50;;;;;;;;;;;22.50;44.30;;;;;;1569532;74;720;-59
2020/12/13 07:56:52;;;;;;;;;;;22.50;44.30;;;;;;1561701;74;886;-58
2020/12/13 07:59:07;;;;;;;;;;;22.50;44.50;;;;;;1556801;74;784;-58
2020/12/13 08:01:09;;;;;;;;;;;22.50;44.70;;;;;;1560139;74;1942;-58
2020/12/13 08:03:11;;;;;;;;;;;22.50;44.90;;;;;;1567840;74;752;-58
2020/12/13 08:05:18;;;;;;;;;;;22.50;45.10;;;;;;1571208;74;747;-57
2020/12/13 08:07:17;;;;;;;;;;;22.50;45.30;;;;;;1550612;74;1587;-58
2020/12/13 08:09:19;;;;;;;;;;;22.40;45.30;;;;;;1568184;74;649;-58
2020/12/13 08:11:21;;;;;;;;;;;22.40;45.50;;;;;;1554049;74;1131;-58
2020/12/13 08:13:22;;;;;;;;;;;22.50;45.60;;;;;;1559443;74;655;-58
2020/12/13 08:15:24;;;;;;;;;;;22.40;45.70;;;;;;1559490;74;684;-58
2020/12/13 08:17:26;;;;;;;;;;;22.40;45.80;;;;;;1563004;74;721;-58
2020/12/13 08:19:36;;;;;;;;;;;22.50;46.00;;;;;;1560070;74;687;-58
2020/12/13 08:21:45;;;;;;;;;;;22.40;45.80;;;;;;1556401;74;1946;-56
2020/12/13 08:23:47;;;;;;;;;;;22.40;46.10;;;;;;1558405;74;763;-56
2020/12/13 08:25:49;;;;;;;;;;;22.40;46.00;;;;;;1557662;74;752;-56
2020/12/13 08:27:51;;;;;;;;;;;22.40;46.10;;;;;;1561607;74;651;-56
2020/12/13 08:29:53;;;;;;;;;;;22.40;46.20;;;;;;1581714;74;1146;-57
2020/12/13 08:31:55;;;;;;;;;;;22.40;46.20;;;;;;1578492;74;705;-56
2020/12/13 08:34:03;;;;;;;;;;;22.40;46.20;;;;;;1571713;74;767;-57
2020/12/13 08:36:18;;;;;;;;;;;22.40;46.40;;;;;;1561569;74;675;-57
2020/12/13 08:38:21;;;;;;;;;;;22.50;46.40;;;;;;1558808;74;869;-59
2020/12/13 08:40:43;;;;;;;;;;;22.50;46.30;;;;;;1558813;74;1932;-57
2020/12/13 08:42:45;;;;;;;;;;;22.50;46.00;;;;;;1559144;74;1053;-58
2020/12/13 08:44:47;;;;;;;;;;;22.50;46.10;;;;;;1553248;74;784;-58
2020/12/13 08:46:49;;;;;;;;;;;22.60;45.70;;;;;;1552700;74;887;-58
2020/12/13 08:48:51;;;;;;;;;;;22.50;45.70;;;;;;1553017;74;796;-56
2020/12/13 08:51:08;;;;;;;;;;;22.60;45.50;;;;;;1560869;74;1152;-56
2020/12/13 08:53:20;;;;;;;;;;;22.70;45.50;;;;;;1553167;74;710;-58
2020/12/13 08:55:26;;;;;;;;;;;22.70;45.40;;;;;;1563156;74;699;-57
2020/12/13 08:57:28;;;;;;;;;;;22.60;45.20;;;;;;1576876;74;713;-58
2020/12/13 08:59:30;;;;;;;;;;;22.70;45.30;;;;;;1580723;74;698;-57
2020/12/13 09:01:35;;;;;;;;;;;22.70;45.10;;;;;;1562864;74;1938;-58
2020/12/13 09:03:36;;;;;;;;;;;22.80;45.10;;;;;;1560665;74;1577;-56
2020/12/13 09:05:38;;;;;;;;;;;22.80;45.20;;;;;;1566449;74;645;-57
2020/12/13 09:07:41;;;;;;;;;;;22.70;45.00;;;;;;1562180;74;680;-57
2020/12/13 09:09:43;;;;;;;;;;;22.70;45.20;;;;;;1561163;74;1205;-55
2020/12/13 09:11:45;;;;;;;;;;;22.70;45.40;;;;;;1558968;74;713;-56
2020/12/13 09:13:50;;;;;;;;;;;22.60;45.60;;;;;;1560227;74;676;-55
2020/12/13 09:15:52;;;;;;;;;;;22.60;45.80;;;;;;1571754;74;705;-55
2020/12/13 09:17:57;;;;;;;;;;;22.60;45.80;;;;;;1576366;74;641;-56
2020/12/13 09:19:59;;;;;;;;;;;22.50;46.10;;;;;;1572225;74;1136;-58
2020/12/13 09:22:01;;;;;;;;;;;22.50;45.70;;;;;;1575797;74;1945;-57
2020/12/13 09:24:03;;;;;;;;;;;22.60;45.50;;;;;;1577825;74;803;-55
2020/12/13 09:26:05;;;;;;;;;;;22.70;45.60;;;;;;1585863;73;753;-56
2020/12/13 09:28:07;;;;;;;;;;;22.60;45.40;;;;;;1583835;74;724;-57
2020/12/13 09:30:09;;;;;;;;;;;22.70;45.50;;;;;;1577843;74;1161;-56
2020/12/13 09:32:11;;;;;;;;;;;22.70;45.20;;;;;;1572332;74;716;-57
2020/12/13 09:34:13;;;;;;;;;;;22.70;45.20;;;;;;1573057;74;790;-56
2020/12/13 09:36:14;;;;;;;;;;;22.70;45.20;;;;;;1571371;74;771;-57
2020/12/13 09:38:16;;;;;;;;;;;22.70;45.10;;;;;;1569826;74;651;-57
2020/12/13 09:40:20;;;;;;;;;;;22.80;45.10;;;;;;1570046;74;1934;-55
2020/12/13 09:42:22;;;;;;;;;;;22.80;45.00;;;;;;1565138;74;694;-57
2020/12/13 09:44:24;;;;;;;;;;;22.80;44.80;;;;;;1565528;74;783;-58
2020/12/13 09:46:25;;;;;;;;;;;22.80;44.90;;;;;;1556383;74;691;-57
2020/12/13 09:48:27;;;;;;;;;;;22.80;44.70;;;;;;1569860;74;752;-57
2020/12/13 09:50:29;;;;;;;;;;;22.80;44.80;;;;;;1570226;74;1137;-55
2020/12/13 09:52:31;;;;;;;;;;;22.80;44.40;;;;;;1575776;74;740;-57
2020/12/13 09:54:33;;;;;;;;;;;22.80;44.20;;;;;;1567705;74;1031;-56
2020/12/13 09:56:35;;;;;;;;;;;22.90;44.00;;;;;;1565482;74;820;-56
2020/12/13 09:58:37;;;;;;;;;;;22.80;44.00;;;;;;1560615;74;745;-58
2020/12/13 10:00:39;;;;;;;;;;;22.80;44.30;;;;;;1567762;74;1954;-56
2020/12/13 10:02:42;;;;;;;;;;;22.70;44.60;;;;;;1573584;74;723;-57
2020/12/13 10:04:44;;;;;;;;;;;22.60;44.50;;;;;;1563555;74;678;-56
2020/12/13 10:06:56;;;;;;;;;;;22.60;44.40;;;;;;1555377;74;713;-56
2020/12/13 10:09:06;;;;;;;;;;;22.60;44.50;;;;;;1559192;74;1519;-57
2020/12/13 10:11:06;;;;;;;;;;;22.60;44.40;;;;;;1563953;74;1533;-56
2020/12/13 10:13:08;;;;;;;;;;;22.70;44.40;;;;;;1574829;73;802;-58
2020/12/13 10:15:12;;;;;;;;;;;22.70;44.20;;;;;;1572708;74;660;-58
2020/12/13 10:17:14;;;;;;;;;;;22.70;44.10;;;;;;1575317;74;729;-58
2020/12/13 10:19:16;;;;;;;;;;;22.80;44.10;;;;;;1554307;74;699;-59
2020/12/13 10:21:22;;;;;;;;;;;22.80;44.20;;;;;;1560303;74;1941;-57
2020/12/13 10:23:24;;;;;;;;;;;22.70;44.20;;;;;;1549909;74;1707;-58
2020/12/13 10:25:26;;;;;;;;;;;22.70;44.20;;;;;;1552451;74;793;-58
2020/12/13 10:27:28;;;;;;;;;;;22.70;44.10;;;;;;1553754;74;724;-57
2020/12/13 10:29:30;;;;;;;;;;;22.70;44.10;;;;;;1553306;74;734;-57
2020/12/13 10:31:32;;;;;;;;;;;22.80;44.00;;;;;;1554870;74;1078;-56
2020/12/13 10:33:39;;;;;;;;;;;22.80;44.00;;;;;;1556083;74;721;-58
2020/12/13 10:35:41;;;;;;;;;;;22.80;43.90;;;;;;1553357;74;1624;-56
2020/12/13 10:37:43;;;;;;;;;;;22.70;43.90;;;;;;1555094;74;719;-57
2020/12/13 10:39:45;;;;;;;;;;;22.80;43.90;;;;;;1552321;74;1138;-60
2020/12/13 10:41:47;;;;;;;;;;;22.80;43.90;;;;;;1552077;74;1939;-57
2020/12/13 10:43:49;;;;;;;;;;;22.70;43.90;;;;;;1554436;74;985;-56
2020/12/13 10:45:51;;;;;;;;;;;22.60;43.80;;;;;;1553076;74;670;-58
2020/12/13 10:47:53;;;;;;;;;;;22.70;43.90;;;;;;1555588;74;683;-59
2020/12/13 10:49:55;;;;;;;;;;;22.70;43.90;;;;;;1556352;74;1184;-59
2020/12/13 10:51:57;;;;;;;;;;;22.70;43.90;;;;;;1556085;74;688;-60
2020/12/13 10:53:59;;;;;;;;;;;22.80;43.90;;;;;;1554886;74;744;-59
2020/12/13 10:56:02;;;;;;;;;;;22.80;43.90;;;;;;1551315;74;749;-59
2020/12/13 10:58:04;;;;;;;;;;;22.70;43.90;;;;;;1552046;74;688;-57
2020/12/13 11:00:06;;;;;;;;;;;22.70;43.90;;;;;;1558089;74;1174;-57
2020/12/13 11:02:08;;;;;;;;;;;22.80;43.80;;;;;;1553619;74;1931;-57
2020/12/13 11:04:10;;;;;;;;;;;22.80;43.80;;;;;;1554092;74;721;-58
2020/12/13 11:06:12;;;;;;;;;;;22.70;43.90;;;;;;1553502;74;729;-57
2020/12/13 11:08:14;;;;;;;;;;;22.70;43.80;;;;;;1558543;74;720;-56
2020/12/13 11:10:16;;;;;;;;;;;22.70;43.90;;;;;;1552813;74;1147;-57
2020/12/13 11:12:18;;;;;;;;;;;22.80;43.90;;;;;;1556934;74;771;-56
2020/12/13 11:14:20;;;;;;;;;;;22.70;43.90;;;;;;1550832;74;763;-56
2020/12/13 11:16:22;;;;;;;;;;;22.70;44.00;;;;;;1558712;74;699;-58
2020/12/13 11:18:24;;;;;;;;;;;22.60;43.90;;;;;;1551900;74;703;-59
2020/12/13 11:20:26;;;;;;;;;;;22.60;43.90;;;;;;1552158;74;1213;-57
2020/12/13 11:22:27;;;;;;;;;;;22.60;43.90;;;;;;1550644;74;1917;-57
2020/12/13 11:24:29;;;;;;;;;;;22.60;43.90;;;;;;1551050;74;656;-58
2020/12/13 11:26:31;;;;;;;;;;;22.60;43.90;;;;;;1551681;74;681;-59
2020/12/13 11:28:33;;;;;;;;;;;22.60;43.90;;;;;;1551265;74;624;-60
2020/12/13 11:30:35;;;;;;;;;;;22.60;43.90;;;;;;1555229;74;1100;-59
2020/12/13 11:32:37;;;;;;;;;;;22.60;43.80;;;;;;1562614;74;727;-59
2020/12/13 11:34:39;;;;;;;;;;;22.60;43.80;;;;;;1553779;74;863;-59
2020/12/13 11:36:41;;;;;;;;;;;22.60;43.90;;;;;;1552247;74;724;-59
2020/12/13 11:38:43;;;;;;;;;;;22.60;43.90;;;;;;1552398;74;796;-58
2020/12/13 11:40:45;;;;;;;;;;;22.60;43.90;;;;;;1552682;74;1102;-59
2020/12/13 11:42:47;;;;;;;;;;;22.60;43.90;;;;;;1551451;74;1938;-59
2020/12/13 11:44:49;;;;;;;;;;;22.60;43.90;;;;;;1558336;74;722;-59
2020/12/13 11:46:50;;;;;;;;;;;22.60;43.90;;;;;;1568171;74;790;-59
2020/12/13 11:48:53;;;;;;;;;;;22.60;44.00;;;;;;1556647;74;667;-60
2020/12/13 11:50:55;;;;;;;;;;;22.50;43.70;;;;;;1580445;74;1213;-60
2020/12/13 11:52:57;;;;;;;;;;;22.60;43.60;;;;;;1580064;74;752;-59
2020/12/13 11:54:59;;;;;;;;;;;22.60;43.60;;;;;;1576566;74;780;-58
2020/12/13 11:57:01;;;;;;;;;;;22.60;43.60;;;;;;1575662;74;697;-58
2020/12/13 11:59:03;;;;;;;;;;;22.60;43.80;;;;;;1563766;74;648;-60
2020/12/13 12:01:08;;;;;;;;;;;22.60;43.80;;;;;;1562001;74;1162;-61
2020/12/13 12:03:10;;;;;;;;;;;22.50;43.90;;;;;;1554584;74;1946;-58
2020/12/13 12:05:12;;;;;;;;;;;22.50;43.90;;;;;;1561311;74;730;-58
2020/12/13 12:07:13;;;;;;;;;;;22.50;44.00;;;;;;1561711;74;709;-58
2020/12/13 12:09:15;;;;;;;;;;;22.50;44.20;;;;;;1572345;74;729;-58
2020/12/13 12:11:19;;;;;;;;;;;22.50;44.20;;;;;;1563058;74;1154;-59
2020/12/13 12:13:21;;;;;;;;;;;22.50;44.30;;;;;;1553111;74;959;-58
2020/12/13 12:15:23;;;;;;;;;;;22.50;44.40;;;;;;1553526;74;650;-58
2020/12/13 12:17:24;;;;;;;;;;;22.40;44.30;;;;;;1557365;74;721;-58
2020/12/13 12:19:26;;;;;;;;;;;22.50;44.40;;;;;;1570977;74;754;-58